Time;durP1;ratioP1;P1;durP2;ratioP2;P2;SDS_P1;SDS_P2;PMS_P1;PMS_P2;Temp;Humidity;BMP_temperature;BMP_pressure;BME280_temperature;BME280_humidity;BME280_pressure;Samples;Min_cycle;Max_cycle;Signal;HPM_P1;HPM_P2
2021/06/15 00:02:25;;;;;;;4.75;2.50;;;18.80;43.20;;;;;;5113725;28;20023;-69
2021/06/15 00:04:50;;;;;;;3.75;2.20;;;18.80;43.20;;;;;;5113671;28;20426;-69
2021/06/15 00:07:16;;;;;;;4.28;2.40;;;18.80;43.70;;;;;;5113499;28;20129;-69
2021/06/15 00:09:42;;;;;;;5.15;2.42;;;18.70;43.70;;;;;;5112256;28;20026;-69
2021/06/15 00:12:09;;;;;;;5.95;2.58;;;18.70;43.40;;;;;;5093062;28;20038;-69
2021/06/15 00:14:38;;;;;;;5.70;2.35;;;18.60;43.70;;;;;;5093043;28;20468;-70
2021/06/15 00:17:05;;;;;;;7.30;2.55;;;18.60;43.40;;;;;;5108581;28;20557;-69
2021/06/15 00:19:31;;;;;;;6.10;3.40;;;18.60;43.60;;;;;;5093033;28;20027;-69
2021/06/15 00:21:57;;;;;;;6.85;2.45;;;18.60;43.90;;;;;;5092878;28;20028;-69
2021/06/15 00:24:23;;;;;;;4.25;2.50;;;18.50;44.10;;;;;;5091592;28;20020;-69
2021/06/15 00:26:49;;;;;;;4.28;2.30;;;18.50;44.30;;;;;;5093116;28;20040;-69
2021/06/15 00:29:15;;;;;;;4.43;2.30;;;18.50;44.30;;;;;;5092821;28;20054;-69
2021/06/15 00:31:40;;;;;;;6.50;2.33;;;18.50;44.40;;;;;;5092662;28;20034;-70
2021/06/15 00:34:06;;;;;;;6.45;2.30;;;18.40;44.40;;;;;;5102735;28;20034;-69
2021/06/15 00:36:32;;;;;;;8.65;2.80;;;18.40;44.50;;;;;;5113089;28;20066;-69
2021/06/15 00:38:58;;;;;;;10.13;2.25;;;18.40;44.80;;;;;;5113061;28;20020;-69
2021/06/15 00:41:23;;;;;;;5.72;2.35;;;18.40;45.10;;;;;;5112026;28;20027;-69
2021/06/15 00:43:49;;;;;;;8.13;2.75;;;18.30;46.00;;;;;;5112892;28;20361;-69
2021/06/15 00:46:15;;;;;;;6.60;2.75;;;18.30;46.10;;;;;;5112907;28;20023;-69
2021/06/15 00:48:43;;;;;;;6.82;2.63;;;18.30;46.20;;;;;;5112474;28;20074;-69
2021/06/15 00:51:10;;;;;;;4.80;2.10;;;18.30;46.20;;;;;;5111742;28;20512;-69
2021/06/15 00:53:36;;;;;;;6.43;3.65;;;18.30;46.00;;;;;;5112827;28;20020;-69
2021/06/15 00:56:04;;;;;;;3.78;2.53;;;18.20;45.90;;;;;;5111647;28;20366;-69
2021/06/15 00:58:29;;;;;;;6.70;2.92;;;18.10;46.30;;;;;;5094162;28;20419;-69
2021/06/15 01:00:55;;;;;;;4.45;2.63;;;18.10;46.40;;;;;;5092233;28;20085;-69
2021/06/15 01:03:23;;;;;;;4.55;2.65;;;18.10;46.60;;;;;;5092463;28;20020;-69
2021/06/15 01:05:50;;;;;;;4.75;2.28;;;18.10;46.50;;;;;;5107111;28;20542;-69
2021/06/15 01:08:53;;;;;;;4.57;2.70;;;18.10;46.60;;;;;;5112528;28;20023;-69
2021/06/15 01:11:19;;;;;;;3.28;1.92;;;18.00;46.50;;;;;;5097711;28;20496;-69
2021/06/15 01:14:07;;;;;;;4.15;2.40;;;18.00;46.10;;;;;;5092178;28;20024;-69
2021/06/15 01:16:37;;;;;;;4.20;2.53;;;17.90;46.40;;;;;;5092288;28;20024;-69
2021/06/15 01:19:21;;;;;;;6.03;2.65;;;17.90;46.30;;;;;;5092051;28;20024;-69
2021/06/15 01:22:25;;;;;;;3.90;2.50;;;17.90;46.30;;;;;;5092151;28;20020;-69
2021/06/15 01:25:09;;;;;;;4.55;2.13;;;17.80;46.50;;;;;;5092190;28;20024;-69
2021/06/15 01:27:47;;;;;;;2.28;1.92;;;17.80;46.70;;;;;;5101370;28;20028;-69
2021/06/15 01:30:16;;;;;;;4.47;2.53;;;17.70;46.60;;;;;;5094434;28;20081;-69
2021/06/15 01:32:48;;;;;;;2.80;2.10;;;17.70;46.60;;;;;;5092790;28;20020;-69
2021/06/15 01:35:15;;;;;;;4.28;2.42;;;17.70;46.60;;;;;;5092802;28;20024;-69
2021/06/15 01:38:01;;;;;;;5.25;2.60;;;17.60;46.80;;;;;;5092778;28;20052;-69
2021/06/15 01:40:47;;;;;;;3.78;2.35;;;17.60;47.10;;;;;;5092700;28;20024;-69
2021/06/15 01:43:20;;;;;;;5.13;2.40;;;17.50;47.00;;;;;;5092836;28;20104;-69
2021/06/15 01:45:51;;;;;;;8.18;2.60;;;17.50;47.10;;;;;;5092702;28;20040;-69
2021/06/15 01:48:27;;;;;;;7.70;3.17;;;17.50;47.20;;;;;;5092804;28;20032;-69
2021/06/15 01:50:55;;;;;;;3.50;2.15;;;17.50;47.30;;;;;;5091081;28;20127;-69
2021/06/15 01:53:23;;;;;;;5.70;2.28;;;17.40;47.10;;;;;;5092625;28;20050;-69
2021/06/15 01:55:51;;;;;;;5.35;2.72;;;17.40;47.30;;;;;;5092473;28;20479;-69
2021/06/15 01:58:20;;;;;;;5.18;2.47;;;17.40;47.30;;;;;;5092861;28;20065;-69
2021/06/15 02:00:48;;;;;;;2.85;2.33;;;17.40;47.40;;;;;;5093012;28;20380;-69
2021/06/15 02:03:14;;;;;;;4.50;2.80;;;17.40;47.60;;;;;;5101255;28;20015;-69
2021/06/15 02:05:47;;;;;;;3.92;2.13;;;17.40;47.40;;;;;;5116678;28;20437;-69
2021/06/15 02:08:25;;;;;;;7.00;2.95;;;17.30;47.50;;;;;;5116622;28;20035;-68
2021/06/15 02:10:52;;;;;;;5.18;2.80;;;17.30;47.60;;;;;;5107309;28;20035;-69
2021/06/15 02:13:18;;;;;;;6.72;2.80;;;17.30;48.20;;;;;;5096144;28;20508;-69
2021/06/15 02:15:46;;;;;;;10.05;2.70;;;17.30;48.40;;;;;;5095987;28;20024;-69
2021/06/15 02:18:13;;;;;;;5.75;2.50;;;17.30;48.20;;;;;;5096074;28;20043;-69
2021/06/15 02:20:43;;;;;;;3.70;2.00;;;17.30;48.00;;;;;;5095911;28;20473;-69
2021/06/15 02:23:12;;;;;;;4.60;2.58;;;17.30;47.90;;;;;;5095996;28;20128;-69
2021/06/15 02:25:40;;;;;;;7.22;2.70;;;17.30;47.90;;;;;;5096028;28;20103;-69
2021/06/15 02:28:06;;;;;;;9.52;3.20;;;17.30;47.80;;;;;;5107335;28;20406;-69
2021/06/15 02:30:32;;;;;;;4.32;2.80;;;17.30;47.80;;;;;;5115425;28;20047;-69
2021/06/15 02:33:08;;;;;;;6.75;3.03;;;17.20;48.20;;;;;;5116140;27;20027;-69
2021/06/15 02:35:38;;;;;;;4.40;2.72;;;17.20;48.60;;;;;;5108819;28;20020;-69
2021/06/15 02:38:13;;;;;;;5.35;3.25;;;17.20;48.80;;;;;;5095812;28;20383;-69
2021/06/15 02:40:41;;;;;;;5.72;3.03;;;17.20;49.50;;;;;;5095670;28;20080;-69
2021/06/15 02:43:08;;;;;;;8.40;3.50;;;17.20;49.50;;;;;;5095424;28;20028;-69
2021/06/15 02:45:36;;;;;;;11.85;3.55;;;17.20;49.30;;;;;;5095522;28;20021;-69
2021/06/15 02:48:44;;;;;;;6.45;3.17;;;17.20;49.50;;;;;;5095397;28;20426;-69
2021/06/15 02:51:13;;;;;;;4.85;2.88;;;17.10;49.50;;;;;;5093377;28;20505;-69
2021/06/15 02:53:43;;;;;;;5.05;3.53;;;17.10;49.50;;;;;;5094067;28;20020;-69
2021/06/15 02:56:17;;;;;;;6.72;3.40;;;17.10;49.50;;;;;;5094914;28;20067;-69
2021/06/15 02:58:44;;;;;;;6.93;3.10;;;17.10;49.70;;;;;;5095372;28;20035;-69
2021/06/15 03:01:09;;;;;;;4.78;3.03;;;17.00;49.30;;;;;;5094930;28;20521;-69
2021/06/15 03:03:39;;;;;;;6.63;2.75;;;17.10;49.40;;;;;;5115100;28;20106;-69
2021/06/15 03:06:05;;;;;;;6.43;3.15;;;17.00;49.40;;;;;;5115486;28;20019;-69
2021/06/15 03:08:33;;;;;;;12.02;3.30;;;17.00;49.60;;;;;;5099852;28;20027;-69
2021/06/15 03:11:00;;;;;;;6.65;3.30;;;17.00;50.20;;;;;;5110857;28;20110;-69
2021/06/15 03:13:40;;;;;;;11.77;3.47;;;17.00;50.00;;;;;;5094490;28;20081;-69
2021/06/15 03:16:09;;;;;;;7.28;3.55;;;17.00;50.40;;;;;;5094513;28;20013;-69
2021/06/15 03:18:50;;;;;;;5.18;3.30;;;16.90;50.60;;;;;;5094767;28;20055;-69
2021/06/15 03:21:21;;;;;;;10.48;3.67;;;17.00;50.90;;;;;;5094518;28;20473;-69
2021/06/15 03:23:57;;;;;;;7.65;3.58;;;16.90;50.90;;;;;;5094757;28;20032;-69
2021/06/15 03:26:27;;;;;;;7.60;3.70;;;17.00;50.80;;;;;;5094728;28;20031;-69
2021/06/15 03:28:58;;;;;;;10.48;3.53;;;16.90;50.90;;;;;;5094891;28;20413;-69
2021/06/15 03:31:27;;;;;;;10.15;3.70;;;17.00;51.20;;;;;;5093085;28;20024;-69
2021/06/15 03:33:55;;;;;;;8.45;3.28;;;17.00;51.10;;;;;;5094226;28;20028;-69
2021/06/15 03:36:23;;;;;;;6.85;3.78;;;17.00;51.00;;;;;;5094403;28;20032;-69
2021/06/15 03:38:53;;;;;;;9.00;4.38;;;17.00;51.40;;;;;;5094128;28;20019;-69
2021/06/15 03:41:19;;;;;;;9.45;3.67;;;17.00;51.60;;;;;;5094346;28;20027;-69
2021/06/15 03:43:48;;;;;;;6.18;3.38;;;17.10;51.40;;;;;;5094239;28;20024;-69
2021/06/15 03:46:17;;;;;;;9.25;3.47;;;17.10;51.20;;;;;;5093958;28;20016;-70
2021/06/15 03:48:46;;;;;;;8.45;4.13;;;17.10;51.10;;;;;;5092960;28;20024;-69
2021/06/15 03:51:27;;;;;;;6.82;3.67;;;17.10;51.20;;;;;;5093818;28;20130;-69
2021/06/15 03:54:06;;;;;;;6.15;3.22;;;17.20;51.30;;;;;;5094196;28;20107;-69
2021/06/15 03:56:44;;;;;;;10.05;3.42;;;17.20;51.30;;;;;;5093909;28;20025;-69
2021/06/15 03:59:17;;;;;;;9.18;3.78;;;17.20;51.20;;;;;;5113119;28;20028;-69
2021/06/15 04:01:45;;;;;;;9.55;3.83;;;17.30;51.30;;;;;;5114172;28;20015;-69
2021/06/15 04:04:14;;;;;;;10.98;3.85;;;17.30;51.10;;;;;;5114349;28;20039;-69
2021/06/15 04:06:46;;;;;;;10.43;3.33;;;17.40;51.20;;;;;;5114081;27;20106;-69
2021/06/15 04:09:13;;;;;;;10.25;4.20;;;17.40;51.60;;;;;;5113156;28;20038;-70
2021/06/15 04:11:41;;;;;;;6.68;4.10;;;17.40;51.70;;;;;;5112974;28;20024;-69
2021/06/15 04:14:13;;;;;;;11.55;3.97;;;17.50;51.70;;;;;;5114218;28;20028;-69
2021/06/15 04:16:40;;;;;;;6.88;3.38;;;17.50;51.90;;;;;;5114052;28;20066;-69
2021/06/15 04:19:14;;;;;;;12.35;4.05;;;17.60;51.50;;;;;;5114081;27;20015;-69
2021/06/15 04:21:45;;;;;;;6.55;3.78;;;17.60;51.50;;;;;;5112751;28;20102;-69
2021/06/15 04:24:15;;;;;;;7.88;3.15;;;17.60;51.20;;;;;;5113295;28;20027;-69
2021/06/15 04:26:41;;;;;;;6.70;3.67;;;17.70;51.10;;;;;;5113146;28;20047;-69
2021/06/15 04:29:10;;;;;;;7.20;3.60;;;17.80;51.00;;;;;;5093457;28;20035;-69
2021/06/15 04:31:39;;;;;;;16.35;4.10;;;17.80;50.90;;;;;;5093433;28;20107;-70
2021/06/15 04:34:07;;;;;;;6.75;3.65;;;17.80;50.70;;;;;;5093493;28;20016;-69
2021/06/15 04:36:33;;;;;;;7.40;4.18;;;17.90;50.60;;;;;;5093325;28;20024;-69
2021/06/15 04:39:12;;;;;;;12.93;3.95;;;18.00;50.70;;;;;;5092114;28;20051;-69
2021/06/15 04:41:43;;;;;;;7.18;3.35;;;18.00;50.50;;;;;;5092024;28;20030;-70
2021/06/15 04:44:12;;;;;;;10.13;4.03;;;18.10;50.50;;;;;;5092054;28;20020;-69
2021/06/15 04:47:00;;;;;;;7.55;3.30;;;18.10;50.20;;;;;;5093249;28;20020;-69
2021/06/15 04:49:57;;;;;;;7.50;4.00;;;18.20;50.10;;;;;;5093236;28;20024;-69
2021/06/15 04:52:27;;;;;;;7.13;3.38;;;18.30;50.10;;;;;;5068324;28;20388;-69
2021/06/15 04:54:55;;;;;;;9.55;4.03;;;18.30;49.90;;;;;;5093241;28;20026;-69
2021/06/15 04:57:25;;;;;;;7.72;3.45;;;18.40;50.30;;;;;;5093359;28;20420;-69
2021/06/15 04:59:54;;;;;;;8.00;3.80;;;18.50;49.70;;;;;;5105117;28;20054;-69
2021/06/15 05:02:23;;;;;;;6.82;3.47;;;18.50;49.60;;;;;;5113455;28;20016;-69
2021/06/15 05:04:53;;;;;;;6.57;3.67;;;18.60;49.50;;;;;;5113430;28;20099;-69
2021/06/15 05:07:20;;;;;;;9.82;3.80;;;18.70;49.50;;;;;;5113437;28;20024;-69
2021/06/15 05:10:00;;;;;;;7.80;4.05;;;18.70;49.30;;;;;;5113326;28;20028;-70
2021/06/15 05:12:34;;;;;;;9.02;3.80;;;18.80;49.30;;;;;;5112128;28;20035;-69
2021/06/15 05:15:05;;;;;;;6.40;3.35;;;18.90;49.20;;;;;;5113432;28;20032;-70
2021/06/15 05:17:31;;;;;;;8.77;3.75;;;18.90;49.10;;;;;;5113295;28;20028;-70
2021/06/15 05:19:58;;;;;;;12.90;4.47;;;19.00;48.90;;;;;;5113220;28;20024;-70
2021/06/15 05:22:25;;;;;;;6.47;3.97;;;19.10;48.70;;;;;;5113280;28;20437;-70
2021/06/15 05:24:59;;;;;;;8.40;4.25;;;19.10;48.60;;;;;;5113251;28;20023;-69
2021/06/15 05:27:27;;;;;;;6.97;4.05;;;19.10;48.60;;;;;;5110401;28;20419;-70
2021/06/15 05:29:53;;;;;;;8.80;4.53;;;19.20;48.50;;;;;;5111243;28;20032;-70
2021/06/15 05:32:19;;;;;;;6.72;4.40;;;19.30;48.50;;;;;;5113001;28;20485;-70
2021/06/15 05:34:45;;;;;;;11.88;4.80;;;19.30;48.50;;;;;;5111390;28;20035;-69
2021/06/15 05:37:12;;;;;;;11.63;4.65;;;19.40;49.10;;;;;;5117097;27;20480;-69
2021/06/15 05:39:38;;;;;;;13.65;5.97;;;19.40;48.40;;;;;;5117154;28;20538;-69
2021/06/15 05:42:05;;;;;;;17.75;5.88;;;19.50;48.40;;;;;;5117110;28;20384;-70
2021/06/15 05:44:31;;;;;;;13.05;5.68;;;19.60;48.40;;;;;;5116864;28;20426;-70
2021/06/15 05:46:57;;;;;;;9.52;4.95;;;19.60;48.20;;;;;;5116859;28;20065;-70
2021/06/15 05:49:23;;;;;;;14.63;5.72;;;19.70;48.20;;;;;;5116822;28;20103;-70
2021/06/15 05:52:02;;;;;;;15.48;5.15;;;19.70;48.30;;;;;;5115992;28;20169;-69
2021/06/15 05:54:28;;;;;;;13.95;5.32;;;19.80;48.20;;;;;;5116702;28;20019;-70
2021/06/15 05:56:54;;;;;;;8.57;5.03;;;19.90;48.20;;;;;;5114722;28;20199;-70
2021/06/15 05:59:20;;;;;;;12.30;5.22;;;20.00;48.00;;;;;;5115484;28;20124;-70
2021/06/15 06:01:46;;;;;;;14.70;4.82;;;20.00;47.90;;;;;;5116620;27;20027;-70
2021/06/15 06:04:13;;;;;;;9.93;5.18;;;20.00;47.90;;;;;;5116597;28;20023;-70
2021/06/15 06:09:23;;;;;;;;;;;20.20;47.80;;;;;;5117144;28;20632;-70
2021/06/15 06:11:49;;;;;;;11.60;5.57;;;20.30;47.70;;;;;;5116380;27;20022;-70
2021/06/15 06:14:16;;;;;;;12.02;5.97;;;20.30;47.50;;;;;;5116017;28;20098;-70
2021/06/15 06:16:42;;;;;;;9.40;5.13;;;20.40;47.20;;;;;;5115671;28;20485;-70
2021/06/15 06:19:10;;;;;;;11.75;6.15;;;20.40;47.20;;;;;;5100836;28;20028;-70
2021/06/15 06:21:36;;;;;;;16.00;7.05;;;20.50;47.20;;;;;;5115969;28;20016;-70
2021/06/15 06:24:05;;;;;;;10.05;6.22;;;20.50;47.10;;;;;;5116161;28;20473;-70
2021/06/15 06:26:31;;;;;;;14.05;6.78;;;20.60;47.00;;;;;;5112862;28;20108;-70
2021/06/15 06:28:57;;;;;;;13.82;6.85;;;20.60;47.00;;;;;;5093995;28;20483;-70
2021/06/15 06:31:22;;;;;;;12.45;6.90;;;20.70;46.80;;;;;;5095046;28;20032;-70
2021/06/15 06:33:48;;;;;;;17.27;6.57;;;20.70;46.60;;;;;;5103590;28;20028;-70
2021/06/15 06:36:15;;;;;;;13.60;6.05;;;20.80;46.40;;;;;;5115033;28;20289;-68
2021/06/15 06:38:41;;;;;;;15.30;6.93;;;20.80;46.50;;;;;;5115317;28;20019;-72
2021/06/15 06:41:07;;;;;;;15.18;6.57;;;20.90;46.50;;;;;;5114559;28;20026;-68
2021/06/15 06:43:33;;;;;;;11.05;5.72;;;21.00;46.40;;;;;;5114014;28;20050;-68
2021/06/15 06:45:59;;;;;;;17.23;7.38;;;21.00;46.40;;;;;;5115603;28;20024;-69
2021/06/15 06:48:25;;;;;;;19.60;7.38;;;21.10;46.30;;;;;;5115147;28;20027;-68
2021/06/15 06:50:51;;;;;;;18.98;8.65;;;21.20;46.30;;;;;;5115516;28;20383;-68
2021/06/15 06:53:17;;;;;;;20.15;9.63;;;21.30;46.10;;;;;;5113981;28;20039;-68
2021/06/15 06:55:43;;;;;;;14.45;8.20;;;21.40;46.10;;;;;;5115433;28;20027;-68
2021/06/15 06:58:10;;;;;;;13.25;7.63;;;21.40;45.80;;;;;;5111420;28;20115;-68
2021/06/15 07:00:36;;;;;;;21.30;9.35;;;21.50;45.90;;;;;;5115172;28;20053;-69
2021/06/15 07:03:02;;;;;;;32.60;10.77;;;21.60;45.80;;;;;;5115409;28;20055;-68
2021/06/15 07:05:28;;;;;;;25.98;8.75;;;21.60;45.30;;;;;;5115243;28;20110;-68
2021/06/15 07:07:53;;;;;;;19.90;9.18;;;21.70;45.20;;;;;;5115059;28;20164;-68
2021/06/15 07:10:20;;;;;;;15.85;9.07;;;21.80;45.20;;;;;;5113040;28;20046;-69
2021/06/15 07:12:47;;;;;;;23.92;9.98;;;21.80;45.00;;;;;;5093536;28;20012;-69
2021/06/15 07:15:13;;;;;;;21.83;9.95;;;21.90;44.90;;;;;;5094797;28;20015;-68
2021/06/15 07:17:39;;;;;;;19.55;8.73;;;22.00;44.90;;;;;;5113905;28;20038;-69
2021/06/15 07:20:06;;;;;;;18.77;9.20;;;22.10;45.00;;;;;;5113383;28;20030;-68
2021/06/15 07:22:32;;;;;;;16.92;9.75;;;22.10;44.80;;;;;;5097120;28;20026;-68
2021/06/15 07:24:58;;;;;;;24.40;10.32;;;22.20;44.60;;;;;;5109385;28;20517;-68
2021/06/15 07:27:24;;;;;;;20.58;9.93;;;22.30;44.30;;;;;;5113067;28;20028;-69
2021/06/15 07:29:50;;;;;;;24.52;9.02;;;22.40;44.30;;;;;;5112901;28;20111;-68
2021/06/15 07:32:16;;;;;;;18.70;9.98;;;22.50;44.10;;;;;;5114626;28;20073;-69
2021/06/15 07:34:42;;;;;;;24.63;10.85;;;22.50;44.00;;;;;;5112436;28;20031;-68
2021/06/15 07:37:08;;;;;;;17.30;9.82;;;22.60;43.80;;;;;;5114781;28;20020;-69
2021/06/15 07:39:34;;;;;;;20.70;9.82;;;22.70;43.80;;;;;;5106443;28;20436;-68
2021/06/15 07:42:00;;;;;;;28.33;10.32;;;22.80;43.60;;;;;;5098541;28;20052;-69
2021/06/15 07:44:26;;;;;;;18.30;8.75;;;22.90;43.40;;;;;;5111081;28;20507;-69
2021/06/15 07:46:54;;;;;;;19.85;11.15;;;22.90;43.30;;;;;;5109953;28;20103;-69
2021/06/15 07:49:21;;;;;;;26.52;9.65;;;23.00;42.60;;;;;;5094260;28;20093;-69
2021/06/15 07:51:47;;;;;;;20.42;9.45;;;23.10;43.10;;;;;;5097428;28;20474;-68
2021/06/15 07:54:12;;;;;;;24.48;9.20;;;23.20;42.80;;;;;;5106153;28;20027;-69
2021/06/15 07:56:38;;;;;;;18.27;9.48;;;23.30;42.70;;;;;;5113037;28;20031;-69
2021/06/15 07:59:04;;;;;;;20.23;9.63;;;23.40;42.50;;;;;;5100111;28;20085;-69
2021/06/15 08:01:30;;;;;;;19.00;8.65;;;23.40;42.00;;;;;;5114493;28;20019;-68
2021/06/15 08:03:56;;;;;;;24.73;8.65;;;23.50;41.90;;;;;;5105603;28;20022;-68
2021/06/15 08:06:22;;;;;;;19.50;9.02;;;23.60;41.50;;;;;;5094718;28;20031;-69
2021/06/15 08:08:48;;;;;;;25.90;8.63;;;23.70;41.20;;;;;;5097296;27;20030;-69
2021/06/15 08:11:14;;;;;;;18.83;8.35;;;23.80;41.40;;;;;;5094212;28;20032;-69
2021/06/15 08:13:40;;;;;;;26.25;8.73;;;23.90;41.10;;;;;;5103770;28;20023;-69
2021/06/15 08:16:06;;;;;;;16.58;7.63;;;24.00;39.60;;;;;;5113923;28;20028;-69
2021/06/15 08:18:32;;;;;;;23.25;8.65;;;24.00;40.30;;;;;;5113635;28;20061;-70
2021/06/15 08:20:58;;;;;;;22.00;9.90;;;24.10;40.10;;;;;;5112016;28;20499;-69
2021/06/15 08:23:25;;;;;;;21.90;8.20;;;24.20;39.80;;;;;;5106786;28;20024;-69
2021/06/15 08:25:51;;;;;;;14.73;7.90;;;24.30;39.70;;;;;;5094084;28;20074;-69
2021/06/15 08:28:17;;;;;;;19.88;7.25;;;24.30;39.40;;;;;;5096782;28;20024;-68
2021/06/15 08:30:43;;;;;;;17.65;6.45;;;24.40;39.30;;;;;;5112479;28;20023;-69
2021/06/15 08:33:09;;;;;;;24.75;7.32;;;24.50;39.20;;;;;;5107788;28;20124;-69
2021/06/15 08:35:35;;;;;;;22.13;7.85;;;24.60;39.10;;;;;;5093205;28;20024;-69
2021/06/15 08:38:02;;;;;;;21.98;7.35;;;24.70;38.70;;;;;;5093244;28;20103;-68
2021/06/15 08:40:28;;;;;;;16.15;8.60;;;24.70;38.50;;;;;;5091808;28;20145;-69
2021/06/15 08:42:54;;;;;;;22.05;7.65;;;24.80;37.90;;;;;;5092890;28;20072;-69
2021/06/15 08:45:21;;;;;;;16.38;6.38;;;24.90;37.90;;;;;;5093067;28;20104;-69
2021/06/15 08:47:49;;;;;;;20.55;6.00;;;24.90;38.10;;;;;;5107318;28;20059;-69
2021/06/15 08:50:33;;;;;;;11.90;5.15;;;25.00;37.80;;;;;;5102939;28;20044;-69
2021/06/15 08:52:59;;;;;;;17.50;6.55;;;25.10;38.00;;;;;;5094891;28;20027;-69
2021/06/15 08:55:32;;;;;;;11.88;4.93;;;25.20;37.80;;;;;;5113555;28;20019;-69
2021/06/15 08:58:10;;;;;;;8.40;4.40;;;25.30;37.50;;;;;;5113717;28;20035;-69
2021/06/15 09:00:36;;;;;;;12.82;4.50;;;25.40;37.10;;;;;;5113594;28;20258;-67
2021/06/15 09:03:01;;;;;;;11.20;5.63;;;25.50;37.30;;;;;;5112175;28;20076;-67
2021/06/15 09:05:27;;;;;;;10.55;4.82;;;25.60;36.90;;;;;;5113439;28;20420;-67
2021/06/15 09:08:00;;;;;;;17.52;5.15;;;25.60;37.00;;;;;;5113223;28;20066;-68
2021/06/15 09:10:37;;;;;;;8.98;4.40;;;25.70;36.70;;;;;;5112822;28;20033;-67
2021/06/15 09:13:03;;;;;;;14.95;5.10;;;25.80;36.60;;;;;;5113278;28;20035;-68
2021/06/15 09:15:30;;;;;;;9.18;4.15;;;25.90;36.40;;;;;;5113639;28;20430;-68
2021/06/15 09:17:56;;;;;;;12.60;5.03;;;26.00;36.40;;;;;;5113129;28;20024;-68
2021/06/15 09:20:31;;;;;;;17.77;4.55;;;26.00;35.80;;;;;;5113213;28;20008;-68
2021/06/15 09:23:08;;;;;;;11.35;5.40;;;26.10;35.80;;;;;;5111170;28;20322;-68
2021/06/15 09:25:35;;;;;;;12.02;5.38;;;26.10;35.40;;;;;;5091693;28;20497;-67
2021/06/15 09:28:22;;;;;;;8.95;4.47;;;26.20;35.10;;;;;;5092975;28;20066;-68
2021/06/15 09:31:16;;;;;;;8.65;4.00;;;26.20;35.20;;;;;;5093008;28;20016;-68
2021/06/15 09:33:46;;;;;;;8.13;3.90;;;26.30;35.60;;;;;;5080587;28;20415;-68
2021/06/15 09:36:15;;;;;;;8.13;4.32;;;26.40;35.10;;;;;;5093206;28;20548;-67
2021/06/15 09:38:57;;;;;;;7.78;4.28;;;26.40;34.70;;;;;;5093615;28;20437;-68
2021/06/15 09:41:33;;;;;;;10.25;3.70;;;26.50;35.10;;;;;;5093460;28;20021;-68
2021/06/15 09:44:21;;;;;;;12.32;4.50;;;26.60;34.70;;;;;;5105059;28;20081;-68
2021/06/15 09:46:49;;;;;;;9.43;4.10;;;26.60;34.80;;;;;;5112831;28;20035;-68
2021/06/15 09:49:37;;;;;;;6.05;3.90;;;26.70;34.50;;;;;;5108318;28;20027;-68
2021/06/15 09:52:17;;;;;;;7.88;3.70;;;26.70;34.60;;;;;;5112902;28;20035;-68
2021/06/15 09:54:46;;;;;;;8.63;3.40;;;26.80;34.60;;;;;;5099054;28;20017;-68
2021/06/15 09:57:24;;;;;;;10.32;3.50;;;26.90;34.60;;;;;;5111730;28;20027;-68
2021/06/15 10:00:09;;;;;;;8.80;3.78;;;27.00;34.60;;;;;;5098964;28;20028;-68
2021/06/15 10:02:58;;;;;;;9.95;3.70;;;27.10;34.70;;;;;;5110492;28;20043;-68
2021/06/15 10:05:35;;;;;;;9.93;3.78;;;27.20;34.70;;;;;;5103833;28;20020;-69
2021/06/15 10:08:05;;;;;;;9.55;4.10;;;27.40;34.30;;;;;;5104652;28;20032;-68
2021/06/15 10:10:35;;;;;;;5.47;3.45;;;27.40;34.00;;;;;;5100054;28;20052;-68
2021/06/15 10:13:01;;;;;;;7.78;4.43;;;27.50;34.10;;;;;;5107056;28;20047;-68
2021/06/15 10:15:28;;;;;;;10.60;3.45;;;27.60;33.50;;;;;;5100127;28;20020;-68
2021/06/15 10:17:55;;;;;;;9.02;3.38;;;27.60;33.30;;;;;;5092355;28;20465;-69
2021/06/15 10:20:24;;;;;;;12.63;4.10;;;27.70;33.40;;;;;;5110893;28;20030;-69
2021/06/15 10:22:51;;;;;;;6.63;3.40;;;27.80;33.70;;;;;;5111072;28;20032;-69
2021/06/15 10:25:20;;;;;;;6.18;3.10;;;27.90;33.80;;;;;;5095902;28;20089;-69
2021/06/15 10:27:47;;;;;;;6.13;3.25;;;28.00;33.40;;;;;;5103619;28;20095;-69
2021/06/15 10:30:14;;;;;;;5.75;3.15;;;28.10;32.70;;;;;;5115971;28;20027;-69
2021/06/15 10:32:54;;;;;;;8.23;3.92;;;28.10;32.50;;;;;;5116056;28;20056;-69
2021/06/15 10:35:40;;;;;;;10.50;4.07;;;28.20;32.40;;;;;;5099395;28;20032;-69
2021/06/15 10:38:06;;;;;;;10.02;3.67;;;28.30;33.00;;;;;;5095667;28;20487;-69
2021/06/15 10:40:35;;;;;;;10.25;4.00;;;28.30;32.50;;;;;;5115673;28;20051;-69
2021/06/15 10:43:22;;;;;;;5.25;3.47;;;28.30;31.60;;;;;;5115619;28;20536;-69
2021/06/15 10:45:52;;;;;;;14.98;3.65;;;28.40;32.20;;;;;;5114173;28;20023;-69
2021/06/15 10:48:20;;;;;;;7.68;3.38;;;28.40;32.10;;;;;;5111037;27;20055;-67
2021/06/15 10:50:46;;;;;;;6.40;3.72;;;28.50;32.20;;;;;;5098831;28;20036;-67
2021/06/15 10:53:13;;;;;;;8.70;3.30;;;28.50;32.10;;;;;;5104974;28;20096;-67
2021/06/15 10:55:47;;;;;;;10.13;4.13;;;28.50;32.00;;;;;;5107811;28;20500;-67
2021/06/15 10:58:14;;;;;;;5.13;3.10;;;28.60;31.50;;;;;;5094570;28;20020;-67
2021/06/15 11:00:44;;;;;;;5.10;3.30;;;28.60;31.40;;;;;;5093214;28;20105;-67
2021/06/15 11:03:29;;;;;;;7.43;3.40;;;28.60;31.40;;;;;;5094406;28;20397;-66
2021/06/15 11:05:59;;;;;;;6.75;3.67;;;28.70;31.40;;;;;;5104038;28;20405;-66
2021/06/15 11:08:32;;;;;;;12.52;4.75;;;28.70;31.70;;;;;;5111356;27;20026;-75
2021/06/15 11:11:02;;;;;;;11.70;3.75;;;28.80;31.60;;;;;;5113937;28;20401;-74
2021/06/15 11:13:51;;;;;;;7.75;3.65;;;28.80;31.80;;;;;;5096098;28;20024;-71
2021/06/15 11:16:25;;;;;;;5.78;3.17;;;28.90;31.40;;;;;;5100358;27;20031;-74
2021/06/15 11:19:10;;;;;;;10.13;4.18;;;28.90;31.20;;;;;;5092905;28;20542;-78
2021/06/15 11:21:52;;;;;;;8.32;3.13;;;28.90;31.00;;;;;;5102407;28;20372;-73
2021/06/15 11:24:36;;;;;;;7.65;3.92;;;28.90;30.50;;;;;;5113367;27;20020;-75
2021/06/15 11:27:04;;;;;;;;;;;29.00;31.10;;;;;;5114958;28;20473;-75
2021/06/15 11:29:33;;;;;;;5.70;3.38;;;29.00;31.80;;;;;;5114593;28;19937;-70
2021/06/15 11:32:21;;;;;;;6.70;3.28;;;29.10;30.50;;;;;;5114006;28;20028;-66
2021/06/15 11:34:57;;;;;;;6.20;4.13;;;29.20;30.30;;;;;;5114428;28;20055;-72
2021/06/15 11:37:37;;;;;;;5.95;3.58;;;29.30;30.10;;;;;;5111933;28;20031;-76
2021/06/15 11:40:14;;;;;;;9.18;3.42;;;29.30;30.50;;;;;;5103875;28;20032;-83
2021/06/15 11:42:40;;;;;;;6.93;3.00;;;29.40;30.10;;;;;;5093806;28;20112;-74
2021/06/15 11:45:13;;;;;;;7.50;3.08;;;29.50;30.00;;;;;;5097070;28;20073;-74
2021/06/15 11:47:39;;;;;;;7.60;4.00;;;29.60;30.00;;;;;;5095702;28;20023;-71
2021/06/15 11:50:10;;;;;;;8.93;3.08;;;29.60;29.40;;;;;;5111481;28;20023;-71
2021/06/15 11:52:39;;;;;;;9.05;3.30;;;29.60;29.50;;;;;;5093214;28;20023;-71
2021/06/15 11:55:06;;;;;;;5.88;3.50;;;29.70;29.30;;;;;;5093611;28;20024;-71
2021/06/15 11:57:32;;;;;;;9.05;3.50;;;29.80;29.40;;;;;;5094175;28;20028;-71
2021/06/15 11:59:58;;;;;;;6.40;3.15;;;29.80;29.30;;;;;;5094077;28;20039;-72
2021/06/15 12:02:25;;;;;;;7.65;3.20;;;29.90;29.00;;;;;;5093996;28;20101;-69
2021/06/15 12:05:10;;;;;;;14.95;4.55;;;29.90;29.30;;;;;;5093931;28;20027;-70
2021/06/15 12:07:41;;;;;;;6.43;3.80;;;30.00;29.10;;;;;;5093965;28;20024;-70
2021/06/15 12:10:14;;;;;;;6.20;3.05;;;30.00;28.80;;;;;;5093885;28;20138;-70
2021/06/15 12:13:03;;;;;;;7.50;3.00;;;30.10;28.90;;;;;;5092316;28;20024;-70
2021/06/15 12:16:17;;;;;;;10.20;3.78;;;30.20;29.00;;;;;;5093997;28;20382;-70
2021/06/15 12:18:48;;;;;;;4.32;2.80;;;30.30;28.90;;;;;;5031489;28;20037;-71
2021/06/15 12:21:18;;;;;;;4.60;2.75;;;30.40;28.70;;;;;;5031481;28;20037;-70
2021/06/15 12:23:46;;;;;;;6.65;3.45;;;30.50;28.50;;;;;;5031436;28;20029;-72
2021/06/15 12:26:16;;;;;;;8.15;2.90;;;30.50;28.20;;;;;;5041836;28;20029;-71
2021/06/15 12:28:43;;;;;;;7.55;3.00;;;30.60;28.40;;;;;;5051186;28;20025;-70
2021/06/15 12:31:33;;;;;;;6.10;3.45;;;30.70;28.10;;;;;;5034364;28;20029;-70
2021/06/15 12:34:08;;;;;;;6.35;3.13;;;30.70;28.20;;;;;;5051150;28;20524;-71
2021/06/15 12:36:36;;;;;;;7.38;3.47;;;30.70;27.90;;;;;;5051024;28;20037;-70
2021/06/15 12:39:20;;;;;;;8.75;3.22;;;30.70;27.90;;;;;;5051066;28;20021;-70
2021/06/15 12:42:13;;;;;;;6.13;3.40;;;30.80;28.00;;;;;;5050587;28;20067;-70
2021/06/15 12:44:42;;;;;;;6.60;3.70;;;30.90;27.70;;;;;;5050256;28;20021;-70
2021/06/15 12:47:16;;;;;;;8.00;2.95;;;31.00;27.60;;;;;;5050961;28;20025;-70
2021/06/15 12:49:54;;;;;;;;;;;31.10;27.60;;;;;;5084476;28;20098;-70
2021/06/15 12:52:30;;;;;;;4.57;2.58;;;31.20;28.30;;;;;;5111794;28;19911;-70
2021/06/15 12:55:07;;;;;;;6.00;3.28;;;31.40;27.70;;;;;;5097513;28;20028;-71
2021/06/15 12:57:33;;;;;;;5.82;3.00;;;31.40;27.00;;;;;;5092932;28;20385;-72
2021/06/15 13:00:00;;;;;;;8.55;3.05;;;31.50;26.90;;;;;;5106412;28;20171;-71
2021/06/15 13:02:27;;;;;;;5.47;3.67;;;31.60;27.00;;;;;;5107101;28;20024;-72
2021/06/15 13:04:58;;;;;;;4.85;3.00;;;31.70;27.10;;;;;;5093000;28;20024;-72